Clarksville, Virginia
Current Conditions -  °F | °C
As of 3:55 AM on Wednesday 26 Nov 2014 (Local Time) from KW63 Reporting Station
Overcast Overcast  
Wind Chill: 40°   Ceiling: 600
Heat Index: 45°   Visibility: 5mi
Dew Point: 45°   Wind: 8mph
Humidity: 100%   Direction: 20°NNE
Pressure: 29.96"   Gusts: NA
Location:  36.62°N, 78.56°W
Report Text: KW63 260855Z AUTO 02007KT 5SM OVC006 07/07 A2996 RMK AO1 P0010
Loading
Personal Weather Stations






























Interactive Weather Map New forecast layout! Learn more

10-Day Weather Forecast

Advertisements
Track Severe Weather on mobile